Latest Weather Observations for Kadina

IDS60801

Issued at 10:51 pm CDT Friday 23 October 2020 (issued every 10 minutes, with the page automatically refreshed every 10 minutes)

About weather observations | Map of weather stations | Latest weather observations for SA | Other Formats
Station Details ID: 022050 Name: KADINA AWS Lat: -33.97 Lon: 137.66 Height: 41.14 m
Data from the previous 72 hours. | See also: Recent months at Kadina
Date/Time
CDT
Temp
°C
App
Temp
°C
Dew
Point
°C
Rel
Hum
%
Delta-T
°C
Wind Press
QNH
hPa
Press
MSL
hPa
Rain since
9am
mm
Dir  Spd
km/h
Gust
km/h
Spd
kts
Gust
kts
23/10:30pm 14.2 7.4 10.6 79 1.9 S 37 54 20 29 1008.5 1008.4 0.2
23/10:00pm 14.3 8.2 10.5 78 2.0 S 33 44 18 24 1008.4 1008.3 0.2
23/09:30pm 14.2 7.4 10.6 79 1.9 S 37 48 20 26 1007.8 1007.7 0.2
23/09:01pm 14.5 7.9 11.5 82 1.6 S 37 56 20 30 1007.4 1007.3 0.2
23/09:00pm 14.5 7.9 11.5 82 1.6 S 37 54 20 29 1007.4 1007.3 0.2
23/08:30pm 14.7 7.5 11.8 83 1.6 S 41 59 22 32 1006.8 1006.7 0.2
23/08:11pm 14.9 7.7 12.0 83 1.6 S 41 59 22 32 1006.2 1006.1 0.2
23/08:00pm 14.9 6.8 12.0 83 1.6 S 46 59 25 32 1006.0 1005.9 0.2
23/07:30pm 15.3 8.6 12.2 82 1.7 S 39 54 21 29 1005.6 1005.5 0.2
23/07:00pm 16.0 10.2 12.6 80 1.9 S 35 46 19 25 1005.3 1005.2 0.2
23/06:30pm 17.3 12.2 13.2 77 2.3 SSE 32 44 17 24 1004.8 1004.7 0.2
23/06:00pm 17.8 13.1 13.3 75 2.6 S 30 39 16 21 1004.4 1004.3 0.2
23/05:30pm 18.1 13.5 13.4 74 2.7 S 30 41 16 22 1003.9 1003.8 0.2
23/05:00pm 19.1 14.1 13.5 70 3.2 SSE 32 41 17 22 1003.4 1003.3 0.2
23/04:30pm 19.7 14.5 13.4 67 3.6 SSE 33 44 18 24 1002.9 1002.8 0.2
23/04:00pm 21.0 16.0 13.9 64 4.1 SSE 33 46 18 25 1002.4 1002.4 0.2
23/03:30pm 21.5 17.4 13.7 61 4.5 SE 28 37 15 20 1002.9 1002.8 0.2
23/03:00pm 23.0 20.8 14.3 58 5.1 WSW 19 26 10 14 1002.8 1002.7 0.2
23/02:30pm 22.9 19.7 14.2 58 5.1 W 24 33 13 18 1002.9 1002.8 0.2
23/02:00pm 23.2 21.6 13.9 56 5.4 SW 15 22 8 12 1002.5 1002.5 0.2
23/01:30pm 23.1 21.8 15.9 64 4.4 SW 17 22 9 12 1002.9 1002.8 0.2
23/01:00pm 22.0 20.6 14.6 63 4.4 W 15 20 8 11 1003.7 1003.6 0.2
23/12:30pm 22.1 22.3 15.7 67 3.9 W 9 15 5 8 1003.7 1003.6 0.2
23/12:00pm 20.7 20.6 15.0 70 3.4 WSW 9 13 5 7 1003.8 1003.7 0.2
23/11:30am 20.1 19.1 15.7 76 2.6 SW 15 20 8 11 1003.9 1003.8 0.2
23/11:00am 19.2 17.5 15.7 80 2.1 SW 19 24 10 13 1004.5 1004.4 0.2
23/10:30am 18.4 16.8 16.0 86 1.4 SW 19 24 10 13 1004.8 1004.7 0.2
23/10:00am 17.6 18.2 15.9 90 1.0 SSW 7 17 4 9 1004.3 1004.2 0.2
23/09:30am 16.7 12.3 15.6 93 0.6 NE 33 43 18 23 1002.9 1002.8 0.0
23/09:00am 16.2 13.7 15.2 94 0.6 NE 22 30 12 16 1004.4 1004.3 2.2
23/08:30am 16.1 14.1 15.0 93 0.6 NE 19 24 10 13 1005.2 1005.1 1.4
23/08:00am 16.0 15.1 14.9 93 0.6 ENE 13 15 7 8 1005.4 1005.3 1.4
23/07:30am 15.9 15.3 14.6 92 0.7 ENE 11 13 6 7 1005.3 1005.2 1.4
23/07:00am 15.9 15.7 14.6 92 0.7 E 9 13 5 7 1005.5 1005.4 1.4
23/06:30am 16.2 14.5 14.6 90 0.9 WSW 17 24 9 13 1005.8 1005.7 1.2
23/06:00am 16.8 13.6 14.3 85 1.4 W 24 35 13 19 1006.2 1006.1 0.8
23/05:30am 17.6 15.2 12.5 72 2.8 SSE 17 24 9 13 1004.4 1004.3 0.2
23/05:00am 16.3 14.4 13.0 81 1.8 E 15 19 8 10 1002.9 1002.8 0.2
23/04:30am 17.2 14.5 12.9 76 2.4 ENE 19 24 10 13 1002.9 1002.8 0.2
23/04:00am 17.1 14.3 12.6 75 2.5 E 19 24 10 13 1003.2 1003.1 0.2
23/03:30am 17.5 14.6 12.4 72 2.8 ESE 19 24 10 13 1003.4 1003.3 0.2
23/03:00am 17.3 13.9 12.4 73 2.7 ESE 22 32 12 17 1003.5 1003.4 0.2
23/02:30am 17.2 13.1 12.7 75 2.5 ESE 26 33 14 18 1003.7 1003.6 0.2
23/02:00am 17.4 13.8 13.1 76 2.4 ESE 24 30 13 16 1003.9 1003.8 0.2
23/01:30am 17.7 12.6 13.2 75 2.5 SE 32 41 17 22 1003.4 1003.3 0.2
23/01:00am 17.0 13.9 13.5 80 2.0 SSE 22 32 12 17 1004.0 1003.9 0.2
23/12:30am 17.8 15.0 13.3 75 2.6 ESE 20 28 11 15 1004.2 1004.1 0.2
23/12:00am 17.8 14.0 13.7 77 2.3 E 26 33 14 18 1004.7 1004.6 0.2
 
Date/Time
CDT
Temp
°C
App
Temp
°C
Dew
Point
°C
Rel
Hum
%
Delta-T
°C
Wind Press
QNH
hPa
Press
MSL
hPa
Rain since
9am
mm
Dir  Spd
km/h
Gust
km/h
Spd
kts
Gust
kts
22/11:30pm 18.1 13.6 13.8 76 2.5 ENE 30 39 16 21 1005.2 1005.1 0.2
22/11:00pm 18.2 13.8 14.1 77 2.4 E 30 39 16 21 1005.8 1005.7 0.2
22/10:30pm 17.8 14.0 13.7 77 2.3 ESE 26 35 14 19 1006.2 1006.1 0.2
22/10:00pm 17.2 13.0 13.5 79 2.1 SE 28 39 15 21 1006.3 1006.2 0.2
22/09:30pm 17.3 13.7 13.2 77 2.3 SE 24 32 13 17 1006.7 1006.6 0.2
22/09:00pm 16.8 12.8 12.9 78 2.2 SE 26 32 14 17 1006.2 1006.1 0.2
22/08:30pm 16.6 12.6 13.1 80 2.0 SE 26 33 14 18 1006.2 1006.1 0.2
22/08:15pm 16.8 12.1 13.3 80 2.0 SSE 30 39 16 21 1006.3 1006.2 0.2
22/08:00pm 17.1 12.2 13.6 80 2.0 SSW 32 39 17 21 1008.3 1008.2 0.2
22/07:30pm 17.8 14.6 13.1 74 2.7 SSE 22 32 12 17 1006.9 1006.8 0.2
22/07:00pm 20.0 17.0 11.8 59 4.6 S 19 24 10 13 1007.5 1007.4 0.0
22/06:46pm 21.1 17.6 10.9 52 5.6 SE 20 33 11 18 1007.3 1007.2 0.0
22/06:30pm 21.1 16.2 11.2 53 5.5 ESE 28 39 15 21 1005.2 1005.1 0.0
22/06:00pm 21.3 17.4 10.8 51 5.8 SE 22 30 12 16 1007.0 1006.9 0.0
22/05:30pm 21.9 18.3 10.4 48 6.3 SSE 20 26 11 14 1007.4 1007.3 0.0
22/05:00pm 22.1 18.2 10.9 49 6.2 SSE 22 30 12 16 1007.6 1007.5 0.0
22/04:30pm 22.5 19.1 11.3 49 6.3 SSE 20 30 11 16 1007.5 1007.4 0.0
22/04:00pm 22.9 20.0 11.0 47 6.6 S 17 20 9 11 1008.3 1008.2 0.0
22/03:30pm 22.9 20.4 9.7 43 7.2 SSE 13 17 7 9 1008.4 1008.3 0.0
22/03:00pm 23.1 20.6 8.4 39 7.8 S 11 17 6 9 1008.5 1008.4 0.0
22/02:30pm 23.8 21.7 9.8 41 7.7 SSW 11 17 6 9 1009.5 1009.4 0.0
22/02:00pm 24.5 22.0 9.6 39 8.1 SSW 13 20 7 11 1009.8 1009.7 0.0
22/01:30pm 23.0 21.0 10.1 44 7.1 S 11 13 6 7 1010.1 1010.0 0.0
22/01:00pm 22.5 20.5 10.0 45 6.8 SE 11 15 6 8 1010.4 1010.3 0.0
22/12:30pm 22.3 19.9 10.1 46 6.7 ESE 13 15 7 8 1010.5 1010.4 0.0
22/12:00pm 21.8 18.9 10.9 50 6.0 ESE 17 22 9 12 1010.4 1010.3 0.0
22/11:30am 21.0 17.2 11.1 53 5.5 ESE 22 26 12 14 1010.4 1010.3 0.0
22/11:00am 20.4 17.7 11.6 57 4.9 SE 17 20 9 11 1010.7 1010.6 0.0
22/10:30am 20.0 17.6 11.5 58 4.7 SSE 15 20 8 11 1010.9 1010.8 0.0
22/10:00am 19.7 17.2 11.2 58 4.7 SE 15 20 8 11 1010.7 1010.6 0.0
22/09:30am 18.6 14.7 10.7 60 4.3 ESE 22 26 12 14 1010.5 1010.4 0.0
22/09:00am 17.9 13.7 11.0 64 3.7 ESE 24 32 13 17 1010.7 1010.6 0.0
22/08:30am 16.6 12.3 10.7 68 3.2 ESE 24 30 13 16 1011.1 1011.0 0.0
22/08:00am 15.8 11.5 10.8 72 2.7 ESE 24 32 13 17 1011.2 1011.1 0.0
22/07:30am 15.1 10.8 10.9 76 2.2 ESE 24 32 13 17 1010.9 1010.8 0.0
22/07:00am 14.2 10.4 11.0 81 1.7 ESE 22 28 12 15 1011.0 1010.9 0.0
22/06:30am 13.6 9.3 10.8 83 1.5 ESE 24 32 13 17 1010.5 1010.4 0.0
22/06:00am 13.7 9.4 10.9 83 1.5 ESE 24 30 13 16 1010.4 1010.3 0.0
22/05:30am 13.5 9.7 11.0 85 1.3 ESE 22 28 12 15 1010.6 1010.5 0.0
22/05:00am 13.3 10.0 11.0 86 1.2 ESE 19 24 10 13 1010.5 1010.4 0.0
22/04:30am 13.4 10.2 11.1 86 1.2 ESE 19 22 10 12 1010.6 1010.5 0.0
22/04:00am 14.0 10.4 11.7 86 1.2 ESE 22 26 12 14 1010.7 1010.6 0.0
22/03:30am 14.1 10.2 12.0 87 1.1 ESE 24 30 13 16 1010.5 1010.4 0.0
22/03:00am 14.3 10.4 12.2 87 1.1 ESE 24 30 13 16 1010.5 1010.4 0.0
22/02:30am 14.5 11.0 12.2 86 1.3 ESE 22 30 12 16 1011.2 1011.1 0.0
22/02:00am 14.2 11.1 12.2 88 1.1 ESE 20 28 11 15 1011.6 1011.5 0.0
22/01:30am 14.0 10.8 11.9 87 1.1 ESE 20 24 11 13 1011.8 1011.7 0.0
22/01:00am 14.2 10.2 11.7 85 1.3 SE 24 30 13 16 1012.3 1012.2 0.0
22/12:30am 14.3 10.3 11.8 85 1.3 ESE 24 32 13 17 1012.7 1012.6 0.0
22/12:00am 14.4 11.1 11.7 84 1.5 ESE 20 24 11 13 1012.8 1012.7 0.0
 
Date/Time
CDT
Temp
°C
App
Temp
°C
Dew
Point
°C
Rel
Hum
%
Delta-T
°C
Wind Press
QNH
hPa
Press
MSL
hPa
Rain since
9am
mm
Dir  Spd
km/h
Gust
km/h
Spd
kts
Gust
kts
21/11:30pm 14.7 11.1 11.8 83 1.6 ESE 22 30 12 16 1012.9 1012.8 0.0
21/11:00pm 14.8 11.1 11.6 81 1.7 ESE 22 30 12 16 1013.2 1013.1 0.0
21/10:30pm 15.1 11.2 12.1 82 1.6 ESE 24 32 13 17 1013.2 1013.1 0.0
21/10:00pm 15.5 11.2 12.1 80 1.9 ESE 26 35 14 19 1013.4 1013.3 0.0
21/09:30pm 15.8 11.8 11.8 77 2.2 ESE 24 30 13 16 1013.3 1013.2 0.0
21/09:00pm 16.2 12.1 11.4 73 2.6 ESE 24 35 13 19 1012.9 1012.8 0.0
21/08:30pm 16.9 11.9 11.0 68 3.2 SE 28 37 15 20 1012.6 1012.5 0.0
21/08:00pm 18.0 13.7 10.9 63 3.8 SE 24 32 13 17 1012.4 1012.3 0.0
21/07:30pm 19.8 14.4 9.4 51 5.5 SE 28 35 15 19 1012.3 1012.2 0.0
21/07:00pm 22.7 18.4 7.7 38 7.8 SE 20 28 11 15 1012.3 1012.2 0.0
21/06:30pm 24.5 20.2 7.2 33 9.1 SE 19 26 10 14 1012.1 1012.0 0.0
21/06:00pm 26.0 22.3 8.0 32 9.7 SW 17 22 9 12 1012.0 1011.9 0.0
21/05:30pm 26.6 22.2 6.6 28 10.5 WSW 19 26 10 14 1011.9 1011.8 0.0
21/05:00pm 26.8 21.6 5.7 26 10.9 WSW 22 28 12 15 1011.9 1011.8 0.0
21/04:30pm 26.9 22.4 6.9 28 10.6 WSW 20 28 11 15 1011.8 1011.7 0.0
21/04:00pm 28.1 23.8 7.9 28 10.9 WSW 20 32 11 17 1011.7 1011.6 0.0
21/03:30pm 27.6 23.4 7.5 28 10.8 WSW 19 28 10 15 1011.9 1011.8 0.0
21/03:00pm 27.9 24.6 8.2 29 10.7 SW 15 22 8 12 1012.4 1012.3 0.0
21/02:30pm 27.3 24.3 7.7 29 10.5 WNW 13 24 7 13 1012.8 1012.7 0.0
21/02:00pm 26.7 22.8 7.2 29 10.4 WSW 17 26 9 14 1013.2 1013.1 0.0
21/01:30pm 26.5 22.8 9.4 34 9.4 WSW 19 26 10 14 1013.5 1013.4 0.0
21/01:00pm 26.2 22.1 10.0 36 9.0 WSW 22 32 12 17 1013.8 1013.7 0.0
21/12:30pm 26.5 23.2 9.4 34 9.4 W 17 22 9 12 1013.9 1013.8 0.0
21/12:00pm 25.3 22.3 10.7 40 8.2 WSW 17 24 9 13 1014.2 1014.1 0.0
21/11:30am 25.9 23.8 6.0 28 10.3 SE 6 11 3 6 1014.3 1014.2 0.0
21/11:00am 25.4 22.9 6.6 30 9.8 ENE 9 15 5 8 1014.6 1014.5 0.0
21/10:30am 24.9 22.4 8.0 34 9.0 ESE 11 17 6 9 1014.7 1014.6 0.0
21/10:00am 23.1 19.9 8.4 39 7.8 ESE 15 20 8 11 1014.8 1014.7 0.0
21/09:30am 21.7 18.7 10.8 50 6.0 ESE 17 20 9 11 1015.0 1014.9 0.0
21/09:00am 19.9 16.7 11.9 60 4.4 ESE 20 26 11 14 1014.7 1014.6 0.0
21/08:30am 17.9 14.6 11.5 66 3.5 ESE 20 24 11 13 1014.7 1014.6 0.0
21/08:00am 16.3 13.0 11.5 73 2.6 ESE 20 26 11 14 1014.5 1014.4 0.0
21/07:30am 14.4 11.7 11.6 83 1.5 ESE 17 20 9 11 1014.4 1014.3 0.0
21/07:00am 14.2 12.3 11.9 86 1.2 ESE 13 17 7 9 1014.2 1014.1 0.0
21/06:30am 14.1 11.8 11.8 86 1.2 ESE 15 19 8 10 1013.7 1013.6 0.0
21/06:00am 14.0 13.1 11.5 85 1.3 ESE 7 11 4 6 1013.7 1013.6 0.0
21/05:30am 14.0 12.3 11.3 84 1.4 ESE 11 15 6 8 1013.3 1013.2 0.0
21/05:00am 13.9 12.8 10.5 80 1.8 SE 7 9 4 5 1013.4 1013.3 0.0
21/04:30am 14.4 14.5 10.2 76 2.2 CALM 0 0 0 0 1013.4 1013.3 0.0
21/04:00am 14.6 13.5 10.6 77 2.1 SSE 7 9 4 5 1013.3 1013.2 0.0
21/03:30am 14.4 12.5 10.6 78 2.0 SSE 11 15 6 8 1013.3 1013.2 0.0
21/03:00am 14.2 11.8 10.0 76 2.2 ESE 13 15 7 8 1013.1 1013.0 0.0
21/02:30am 14.2 11.7 9.6 74 2.4 ESE 13 17 7 9 1013.4 1013.3 0.0
21/02:00am 14.1 11.1 9.3 73 2.5 ESE 15 17 8 9 1013.7 1013.6 0.0
21/01:30am 14.4 11.1 9.4 72 2.6 ESE 17 19 9 10 1013.9 1013.8 0.0
21/01:00am 14.0 11.0 9.2 73 2.4 ESE 15 17 8 9 1014.1 1014.0 0.0
21/12:30am 14.6 11.6 9.2 70 2.8 ESE 15 17 8 9 1014.3 1014.2 0.0
21/12:00am 15.2 11.9 9.6 69 2.9 ESE 17 20 9 11 1014.4 1014.3 0.0
 
Date/Time
CDT
Temp
°C
App
Temp
°C
Dew
Point
°C
Rel
Hum
%
Delta-T
°C
Wind Press
QNH
hPa
Press
MSL
hPa
Rain since
9am
mm
Dir  Spd
km/h
Gust
km/h
Spd
kts
Gust
kts
20/11:30pm 15.5 11.9 9.8 69 3.0 ESE 19 22 10 12 1014.5 1014.4 0.0
20/11:00pm 15.5 12.5 9.2 66 3.2 ESE 15 19 8 10 1014.6 1014.5 0.0

Other formats

Comma delimited format used in spreadsheet applications
http://www.bom.gov.au/fwo/IDS60801/IDS60801.94685.axf

JavaScript Object Notation format (JSON) in row-major order
http://www.bom.gov.au/fwo/IDS60801/IDS60801.94685.json

Data quality

Most of these data are generated automatically and are frequently updated. Quality checks on data are not normally performed. It is possible for incorrect values to appear. Refer to information at About Latest Weather Observations and please check the disclaimer before using these data.